Briston, United Kingdom
Current Conditions -  °F | °C
As of 3:20 AM on Sunday 21 Dec 2014 (Local Time) from EGSH Reporting Station
Broken Clouds Broken Clouds  
Wind Chill: 36°   Ceiling: 4100
Heat Index: 41°   Visibility: 6mi
Dew Point: 37°   Wind: 8mph
Humidity: 87%   Direction: 240°WSW
Pressure: 30.33"   Gusts: NA
Location:  52.85°N, 1.06°E
Report Text: EGSH 210320Z AUTO 24007KT 9999 BKN041/// 05/03 Q1027
Loading
Personal Weather Stations






























Interactive Weather Map New forecast layout! Learn more

10-Day Weather Forecast

Advertisements
Track Severe Weather on mobile